Time;durP1;ratioP1;P1;durP2;ratioP2;P2;SDS_P1;SDS_P2;PMS_P1;PMS_P2;Temp;Humidity;BMP_temperature;BMP_pressure;BME280_temperature;BME280_humidity;BME280_pressure;Samples;Min_cycle;Max_cycle;Signal;HPM_P1;HPM_P2
2020/12/04 00:02:19;;;;;;;1999.90;999.90;;;;;;;;;;5051301;28;20032;-85
2020/12/04 00:04:45;;;;;;;1999.90;999.90;;;;;;;;;;5064258;28;20025;-84
2020/12/04 00:07:11;;;;;;;1999.90;999.90;;;;;;;;;;5075342;28;20037;-85
2020/12/04 00:09:41;;;;;;;1999.90;999.90;;;;;;;;;;5074139;28;20001;-84
2020/12/04 00:12:07;;;;;;;1999.90;999.90;;;;;;;;;;5074621;28;20097;-83
2020/12/04 00:14:33;;;;;;;1999.90;999.90;;;;;;;;;;5073637;28;20064;-84
2020/12/04 00:16:59;;;;;;;1999.90;999.90;;;;;;;;;;5072945;28;20109;-84
2020/12/04 00:19:25;;;;;;;1999.90;999.90;;;;;;;;;;5074394;28;20068;-84
2020/12/04 00:21:51;;;;;;;1999.90;999.90;;;;;;;;;;5074723;28;20028;-84
2020/12/04 00:24:17;;;;;;;1999.90;999.90;;;;;;;;;;5075249;28;20108;-83
2020/12/04 00:26:43;;;;;;;1999.90;999.90;;;;;;;;;;5057879;28;20033;-84
2020/12/04 00:29:09;;;;;;;1999.90;999.90;;;;;;;;;;5074206;28;20079;-84
2020/12/04 00:31:36;;;;;;;1999.90;999.90;;;;;;;;;;5075013;28;20032;-84
2020/12/04 00:34:02;;;;;;;1999.90;999.90;;;;;;;;;;5075177;28;20021;-83
2020/12/04 00:36:28;;;;;;;1999.90;999.90;;;;;;;;;;5065974;28;20021;-85
2020/12/04 00:38:55;;;;;;;1999.90;999.90;;;;;;;;;;5053151;28;20025;-85
2020/12/04 00:41:21;;;;;;;1999.90;999.90;;;;;;;;;;5053337;28;20025;-85
2020/12/04 00:43:47;;;;;;;1999.90;999.90;;;;;;;;;;5052905;28;20031;-84
2020/12/04 00:46:14;;;;;;;1999.90;999.90;;;;;;;;;;5054240;28;20115;-84
2020/12/04 00:48:40;;;;;;;1999.90;999.90;;;;;;;;;;5053583;28;20032;-85
2020/12/04 00:51:06;;;;;;;1999.90;999.90;;;;;;;;;;5052898;28;20025;-85
2020/12/04 00:53:32;;;;;;;1999.90;999.90;;;;;;;;;;5053689;28;20021;-84
2020/12/04 00:55:59;;;;;;;1999.90;999.90;;;;;;;;;;5052633;28;20021;-85
2020/12/04 00:58:25;;;;;;;1999.90;999.90;;;;;;;;;;5053070;28;20021;-85
2020/12/04 01:00:51;;;;;;;1999.90;999.90;;;;;;;;;;5053334;28;20029;-86
2020/12/04 01:03:17;;;;;;;1999.90;999.90;;;;;;;;;;5053001;28;20018;-86
2020/12/04 01:05:43;;;;;;;1999.90;999.90;;;;;;;;;;5055130;28;20082;-86
2020/12/04 01:08:09;;;;;;;1999.90;999.90;;;;;;;;;;5056792;28;20033;-86
2020/12/04 01:10:35;;;;;;;1999.90;999.90;;;;;;;;;;5057094;28;20052;-86
2020/12/04 01:13:01;;;;;;;1999.90;999.90;;;;;;;;;;5057240;28;20025;-85
2020/12/04 01:15:27;;;;;;;1999.90;999.90;;;;;;;;;;5056573;28;20057;-86
2020/12/04 01:17:53;;;;;;;1999.90;999.90;;;;;;;;;;5058617;28;20143;-85
2020/12/04 01:20:19;;;;;;;1999.90;999.90;;;;;;;;;;5057458;28;20021;-86
2020/12/04 01:22:46;;;;;;;1999.90;999.90;;;;;;;;;;5058130;28;20028;-86
2020/12/04 01:25:11;;;;;;;1999.90;999.90;;;;;;;;;;5055829;28;20021;-86
2020/12/04 01:27:37;;;;;;;1999.90;999.90;;;;;;;;;;5039142;28;20033;-86
2020/12/04 01:30:04;;;;;;;1999.90;999.90;;;;;;;;;;5056171;28;20060;-86
2020/12/04 01:32:30;;;;;;;1999.90;999.90;;;;;;;;;;5056230;28;20111;-86
2020/12/04 01:34:56;;;;;;;1999.90;999.90;;;;;;;;;;5056324;28;20416;-85
2020/12/04 01:37:22;;;;;;;1999.90;999.90;;;;;;;;;;5056378;28;20024;-86
2020/12/04 01:39:49;;;;;;;1999.90;999.90;;;;;;;;;;5057060;28;20032;-86
2020/12/04 01:42:15;;;;;;;1999.90;999.90;;;;;;;;;;5058422;28;20025;-86
2020/12/04 01:44:41;;;;;;;1999.90;999.90;;;;;;;;;;5056129;28;20024;-85
2020/12/04 01:47:07;;;;;;;1999.90;999.90;;;;;;;;;;5055662;28;20040;-86
2020/12/04 01:49:33;;;;;;;1999.90;999.90;;;;;;;;;;5037732;28;20026;-85
2020/12/04 01:51:59;;;;;;;1999.90;999.90;;;;;;;;;;5055884;28;20108;-85
2020/12/04 01:54:26;;;;;;;1999.90;999.90;;;;;;;;;;5055565;28;20025;-86
2020/12/04 01:56:52;;;;;;;1999.90;999.90;;;;;;;;;;5055586;28;20067;-86
2020/12/04 01:59:18;;;;;;;1999.90;999.90;;;;;;;;;;5055521;28;20481;-86
2020/12/04 02:01:45;;;;;;;1999.90;999.90;;;;;;;;;;5055943;28;20033;-86
2020/12/04 02:04:12;;;;;;;1999.90;999.90;;;;;;;;;;5055375;28;20028;-86
2020/12/04 02:06:53;;;;;;;1999.90;999.90;;;;;;;;;;5037191;28;20049;-86
2020/12/04 02:09:27;;;;;;;1999.90;999.90;;;;;;;;;;5036924;28;20395;-86
2020/12/04 02:11:54;;;;;;;1999.90;999.90;;;;;;;;;;5055032;28;20027;-86
2020/12/04 02:14:20;;;;;;;1999.90;999.90;;;;;;;;;;5055216;28;20055;-86
2020/12/04 02:16:46;;;;;;;1999.90;999.90;;;;;;;;;;5054887;28;20028;-85
2020/12/04 02:19:13;;;;;;;1999.90;999.90;;;;;;;;;;5055161;28;20505;-86
2020/12/04 02:21:40;;;;;;;1999.90;999.90;;;;;;;;;;5036802;28;20033;-86
2020/12/04 02:24:06;;;;;;;1999.90;999.90;;;;;;;;;;5054614;28;20108;-86
2020/12/04 02:26:33;;;;;;;1999.90;999.90;;;;;;;;;;5054404;28;20048;-85
2020/12/04 02:29:03;;;;;;;1999.90;999.90;;;;;;;;;;5054573;28;20053;-85
2020/12/04 02:31:29;;;;;;;1999.90;999.90;;;;;;;;;;5054568;28;20025;-86
2020/12/04 02:33:55;;;;;;;1999.90;999.90;;;;;;;;;;5054406;28;20021;-85
2020/12/04 02:36:21;;;;;;;1999.90;999.90;;;;;;;;;;5054183;28;20039;-85
2020/12/04 02:38:47;;;;;;;1999.90;999.90;;;;;;;;;;5054965;28;20059;-85
2020/12/04 02:41:14;;;;;;;1999.90;999.90;;;;;;;;;;5054112;28;20516;-85
2020/12/04 02:43:40;;;;;;;1999.90;999.90;;;;;;;;;;5054562;28;20417;-85
2020/12/04 02:46:08;;;;;;;1999.90;999.90;;;;;;;;;;5054121;28;20065;-86
2020/12/04 02:48:34;;;;;;;1999.90;999.90;;;;;;;;;;5054879;28;20025;-85
2020/12/04 02:51:00;;;;;;;1999.90;999.90;;;;;;;;;;5054420;28;20029;-85
2020/12/04 02:53:26;;;;;;;1999.90;999.90;;;;;;;;;;5054171;28;20428;-85
2020/12/04 02:55:52;;;;;;;1999.90;999.90;;;;;;;;;;5054169;28;20040;-86
2020/12/04 02:58:18;;;;;;;1999.90;999.90;;;;;;;;;;5054386;28;20464;-85
2020/12/04 03:00:44;;;;;;;1999.90;999.90;;;;;;;;;;5054392;28;20032;-85
2020/12/04 03:03:10;;;;;;;1999.90;999.90;;;;;;;;;;5035714;28;20116;-85
2020/12/04 03:05:37;;;;;;;1999.90;999.90;;;;;;;;;;5054104;28;20037;-86
2020/12/04 03:08:03;;;;;;;1999.90;999.90;;;;;;;;;;5053791;28;20021;-84
2020/12/04 03:10:29;;;;;;;1999.90;999.90;;;;;;;;;;5055018;28;20029;-85
2020/12/04 03:12:55;;;;;;;1999.90;999.90;;;;;;;;;;5053897;28;20021;-87
2020/12/04 03:15:21;;;;;;;1999.90;999.90;;;;;;;;;;5053428;28;20024;-85
2020/12/04 03:17:47;;;;;;;1999.90;999.90;;;;;;;;;;5053683;28;20106;-84
2020/12/04 03:20:13;;;;;;;1999.90;999.90;;;;;;;;;;5053128;28;20065;-86
2020/12/04 03:22:39;;;;;;;1999.90;999.90;;;;;;;;;;5053208;28;20114;-87
2020/12/04 03:25:05;;;;;;;1999.90;999.90;;;;;;;;;;5053741;28;20035;-85
2020/12/04 03:27:31;;;;;;;1999.90;999.90;;;;;;;;;;5052739;28;20155;-86
2020/12/04 03:29:57;;;;;;;1999.90;999.90;;;;;;;;;;5053257;28;20112;-86
2020/12/04 03:32:23;;;;;;;1999.90;999.90;;;;;;;;;;5053213;28;20036;-86
2020/12/04 03:34:49;;;;;;;1999.90;999.90;;;;;;;;;;5035610;28;20039;-84
2020/12/04 03:37:15;;;;;;;1999.90;999.90;;;;;;;;;;5053633;28;20049;-84
2020/12/04 03:39:41;;;;;;;1999.90;999.90;;;;;;;;;;5035437;28;20230;-84
2020/12/04 03:42:07;;;;;;;1999.90;999.90;;;;;;;;;;5053386;28;20082;-84
2020/12/04 03:44:33;;;;;;;1999.90;999.90;;;;;;;;;;5053276;28;20032;-84
2020/12/04 03:47:00;;;;;;;1999.90;999.90;;;;;;;;;;5053584;28;20119;-83
2020/12/04 03:49:26;;;;;;;1999.90;999.90;;;;;;;;;;5053123;28;20025;-84
2020/12/04 03:51:52;;;;;;;1999.90;999.90;;;;;;;;;;5053078;28;20072;-85
2020/12/04 03:54:18;;;;;;;1999.90;999.90;;;;;;;;;;5052945;28;20029;-84
2020/12/04 03:56:44;;;;;;;1999.90;999.90;;;;;;;;;;5052718;28;20539;-84
2020/12/04 03:59:10;;;;;;;1999.90;999.90;;;;;;;;;;5052992;28;20021;-84
2020/12/04 04:01:36;;;;;;;1999.90;999.90;;;;;;;;;;5052812;28;20052;-84
2020/12/04 04:04:03;;;;;;;1999.90;999.90;;;;;;;;;;5052754;28;20048;-84
2020/12/04 04:06:29;;;;;;;1999.90;999.90;;;;;;;;;;5052523;28;21023;-83
2020/12/04 04:08:55;;;;;;;1999.90;999.90;;;;;;;;;;5052583;28;20036;-85
2020/12/04 04:11:21;;;;;;;1999.90;999.90;;;;;;;;;;5052766;28;20017;-84
2020/12/04 04:13:47;;;;;;;1999.90;999.90;;;;;;;;;;5052450;28;20017;-84
2020/12/04 04:16:13;;;;;;;1999.90;999.90;;;;;;;;;;5052238;28;20044;-84
2020/12/04 04:18:39;;;;;;;1999.90;999.90;;;;;;;;;;5052169;28;20032;-84
2020/12/04 04:21:10;;;;;;;1999.90;999.90;;;;;;;;;;5052184;28;20029;-83
2020/12/04 04:23:36;;;;;;;1999.90;999.90;;;;;;;;;;5052029;28;20051;-84
2020/12/04 04:26:03;;;;;;;1999.90;999.90;;;;;;;;;;5034051;28;20381;-84
2020/12/04 04:28:29;;;;;;;1999.90;999.90;;;;;;;;;;5033901;28;20091;-84
2020/12/04 04:30:55;;;;;;;1999.90;999.90;;;;;;;;;;5052194;28;20074;-85
2020/12/04 04:33:22;;;;;;;1999.90;999.90;;;;;;;;;;5051933;28;20119;-84
2020/12/04 04:35:48;;;;;;;1999.90;999.90;;;;;;;;;;5051984;28;20485;-84
2020/12/04 04:38:14;;;;;;;1999.90;999.90;;;;;;;;;;5051787;28;20413;-84
2020/12/04 04:40:40;;;;;;;1999.90;999.90;;;;;;;;;;5051631;28;20029;-84
2020/12/04 04:43:14;;;;;;;1999.90;999.90;;;;;;;;;;5051775;28;20432;-84
2020/12/04 04:45:46;;;;;;;1999.90;999.90;;;;;;;;;;5051688;28;20033;-85
2020/12/04 04:48:21;;;;;;;1999.90;999.90;;;;;;;;;;5033820;28;20025;-85
2020/12/04 04:50:47;;;;;;;1999.90;999.90;;;;;;;;;;5052016;28;20033;-84
2020/12/04 04:53:14;;;;;;;1999.90;999.90;;;;;;;;;;5051605;28;20725;-84
2020/12/04 04:55:43;;;;;;;1999.90;999.90;;;;;;;;;;5033791;28;20067;-84
2020/12/04 04:58:10;;;;;;;1999.90;999.90;;;;;;;;;;5051658;28;20413;-84
2020/12/04 05:00:36;;;;;;;1999.90;999.90;;;;;;;;;;5052212;28;20055;-85
2020/12/04 05:03:04;;;;;;;1999.90;999.90;;;;;;;;;;5052180;28;20036;-84
2020/12/04 05:05:41;;;;;;;1999.90;999.90;;;;;;;;;;5051554;28;20051;-85
2020/12/04 05:08:13;;;;;;;1999.90;999.90;;;;;;;;;;5051627;28;20033;-84
2020/12/04 05:10:40;;;;;;;1999.90;999.90;;;;;;;;;;5052153;28;20032;-84
2020/12/04 05:13:06;;;;;;;1999.90;999.90;;;;;;;;;;5051673;28;20033;-84
2020/12/04 05:15:32;;;;;;;1999.90;999.90;;;;;;;;;;5051322;28;20537;-84
2020/12/04 05:18:03;;;;;;;1999.90;999.90;;;;;;;;;;5051571;28;20018;-84
2020/12/04 05:20:29;;;;;;;1999.90;999.90;;;;;;;;;;5051341;28;20023;-86
2020/12/04 05:22:55;;;;;;;1999.90;999.90;;;;;;;;;;5051526;28;20017;-84
2020/12/04 05:25:21;;;;;;;1999.90;999.90;;;;;;;;;;5033387;28;20033;-84
2020/12/04 05:27:48;;;;;;;1999.90;999.90;;;;;;;;;;5051439;28;20021;-83
2020/12/04 05:30:22;;;;;;;1999.90;999.90;;;;;;;;;;5052134;28;20493;-83
2020/12/04 05:32:57;;;;;;;1999.90;999.90;;;;;;;;;;5053780;28;20031;-83
2020/12/04 05:35:24;;;;;;;1999.90;999.90;;;;;;;;;;5051250;28;20052;-86
2020/12/04 05:37:50;;;;;;;1999.90;999.90;;;;;;;;;;5051509;28;20024;-85
2020/12/04 05:40:23;;;;;;;1999.90;999.90;;;;;;;;;;5051724;28;20025;-84
2020/12/04 05:42:49;;;;;;;1999.90;999.90;;;;;;;;;;5051171;28;20057;-85
2020/12/04 05:45:15;;;;;;;1999.90;999.90;;;;;;;;;;5046024;28;20119;-84
2020/12/04 05:47:45;;;;;;;1999.90;999.90;;;;;;;;;;5051978;28;20025;-83
2020/12/04 05:50:12;;;;;;;1999.90;999.90;;;;;;;;;;5052870;28;20028;-84
2020/12/04 05:52:39;;;;;;;1999.90;999.90;;;;;;;;;;5055777;28;20095;-84
2020/12/04 05:55:06;;;;;;;1999.90;999.90;;;;;;;;;;5038001;28;20032;-84
2020/12/04 05:57:42;;;;;;;1999.90;999.90;;;;;;;;;;5059257;28;20031;-84
2020/12/04 06:00:08;;;;;;;1999.90;999.90;;;;;;;;;;5073209;28;20032;-83
2020/12/04 06:02:34;;;;;;;1999.90;999.90;;;;;;;;;;5072238;28;20032;-85
2020/12/04 06:05:00;;;;;;;1999.90;999.90;;;;;;;;;;5040331;28;20039;-83
2020/12/04 06:07:28;;;;;;;1999.90;999.90;;;;;;;;;;5058041;28;20052;-82
2020/12/04 06:09:56;;;;;;;1999.90;999.90;;;;;;;;;;5039995;28;20025;-84
2020/12/04 06:12:22;;;;;;;1999.90;999.90;;;;;;;;;;5059894;28;20029;-86
2020/12/04 06:14:48;;;;;;;1999.90;999.90;;;;;;;;;;5069773;28;20031;-89
2020/12/04 06:17:14;;;;;;;1999.90;999.90;;;;;;;;;;5074862;28;20553;-89
2020/12/04 06:19:42;;;;;;;1999.90;999.90;;;;;;;;;;5066739;28;20157;-87
2020/12/04 06:22:09;;;;;;;1999.90;999.90;;;;;;;;;;5064418;28;20021;-86
2020/12/04 06:24:55;;;;;;;1999.90;999.90;;;;;;;;;;5074091;28;20080;-84
2020/12/04 06:27:56;;;;;;;1999.90;999.90;;;;;;;;;;5078956;28;20029;-89
2020/12/04 06:30:23;;;;;;;1999.90;999.90;;;;;;;;;;5007305;28;20533;-88
2020/12/04 06:32:49;;;;;;;1999.90;999.90;;;;;;;;;;5044477;28;20553;-89
2020/12/04 06:35:32;;;;;;;1999.90;999.90;;;;;;;;;;5066256;28;20025;-84
2020/12/04 06:37:58;;;;;;;1999.90;999.90;;;;;;;;;;5061615;28;20025;-84
2020/12/04 06:40:29;;;;;;;1999.90;999.90;;;;;;;;;;5078825;28;20036;-82
2020/12/04 06:42:56;;;;;;;1999.90;999.90;;;;;;;;;;5089587;28;20017;-83
2020/12/04 06:45:22;;;;;;;1999.90;999.90;;;;;;;;;;5082231;28;20132;-83
2020/12/04 06:48:07;;;;;;;1999.90;999.90;;;;;;;;;;5070243;28;20033;-83
2020/12/04 06:50:42;;;;;;;1999.90;999.90;;;;;;;;;;5055039;28;20461;-81
2020/12/04 06:53:10;;;;;;;1999.90;999.90;;;;;;;;;;5062535;28;20028;-85
2020/12/04 06:55:37;;;;;;;1999.90;999.90;;;;;;;;;;5058024;28;20025;-86
2020/12/04 06:58:03;;;;;;;1999.90;999.90;;;;;;;;;;5057810;28;20060;-85
2020/12/04 07:00:30;;;;;;;1999.90;999.90;;;;;;;;;;5064661;28;20084;-87
2020/12/04 07:02:56;;;;;;;1999.90;999.90;;;;;;;;;;5051288;28;20025;-85
2020/12/04 07:05:23;;;;;;;1999.90;999.90;;;;;;;;;;5053694;28;20068;-84
2020/12/04 07:07:49;;;;;;;1999.90;999.90;;;;;;;;;;5050743;28;20036;-84
2020/12/04 07:10:15;;;;;;;1999.90;999.90;;;;;;;;;;5049703;28;20481;-83
2020/12/04 07:12:41;;;;;;;1999.90;999.90;;;;;;;;;;5049434;28;20025;-82
2020/12/04 07:15:08;;;;;;;1999.90;999.90;;;;;;;;;;5050471;28;20026;-83
2020/12/04 07:17:34;;;;;;;1999.90;999.90;;;;;;;;;;5034644;28;20025;-82
2020/12/04 07:20:00;;;;;;;1999.90;999.90;;;;;;;;;;5052806;28;20036;-82
2020/12/04 07:22:27;;;;;;;1999.90;999.90;;;;;;;;;;5052544;28;20021;-82
2020/12/04 07:24:55;;;;;;;1999.90;999.90;;;;;;;;;;5052827;28;20031;-83
2020/12/04 07:27:26;;;;;;;1999.90;999.90;;;;;;;;;;5052961;28;20060;-82
2020/12/04 07:29:52;;;;;;;1999.90;999.90;;;;;;;;;;5052708;28;20049;-83
2020/12/04 07:32:22;;;;;;;1999.90;999.90;;;;;;;;;;5052285;28;20488;-83
2020/12/04 07:34:48;;;;;;;1999.90;999.90;;;;;;;;;;5052820;28;20028;-83
2020/12/04 07:37:14;;;;;;;1999.90;999.90;;;;;;;;;;5033922;28;20029;-82
2020/12/04 07:39:41;;;;;;;1999.90;999.90;;;;;;;;;;5052481;28;20094;-86
2020/12/04 07:42:09;;;;;;;1999.90;999.90;;;;;;;;;;5055868;28;20025;-85
2020/12/04 07:44:43;;;;;;;1999.90;999.90;;;;;;;;;;5063390;28;20020;-85
2020/12/04 07:47:16;;;;;;;1999.90;999.90;;;;;;;;;;5051291;28;20116;-85
2020/12/04 07:49:46;;;;;;;1999.90;999.90;;;;;;;;;;5051674;28;20067;-85
2020/12/04 07:52:12;;;;;;;1999.90;999.90;;;;;;;;;;5053158;28;20048;-84
2020/12/04 07:54:38;;;;;;;1999.90;999.90;;;;;;;;;;5053608;28;20149;-85
2020/12/04 07:57:05;;;;;;;1999.90;999.90;;;;;;;;;;5055250;28;20449;-85
2020/12/04 07:59:32;;;;;;;1999.90;999.90;;;;;;;;;;5052601;28;20135;-84
2020/12/04 08:02:01;;;;;;;1999.90;999.90;;;;;;;;;;5052709;28;20051;-90
2020/12/04 08:04:28;;;;;;;1999.90;999.90;;;;;;;;;;5054678;28;20029;-90
2020/12/04 08:07:06;;;;;;;1999.90;999.90;;;;;;;;;;5054307;28;20037;-90
2020/12/04 08:09:33;;;;;;;1999.90;999.90;;;;;;;;;;5053405;28;20036;-89
2020/12/04 08:12:01;;;;;;;1999.90;999.90;;;;;;;;;;5053798;28;20087;-89
2020/12/04 08:14:30;;;;;;;1999.90;999.90;;;;;;;;;;5053218;28;20087;-88
2020/12/04 08:17:00;;;;;;;1999.90;999.90;;;;;;;;;;5053910;28;20104;-90
2020/12/04 08:19:30;;;;;;;1999.90;999.90;;;;;;;;;;5054390;28;20036;-90
2020/12/04 08:22:00;;;;;;;1999.90;999.90;;;;;;;;;;5053608;28;20591;-88
2020/12/04 08:24:27;;;;;;;1999.90;999.90;;;;;;;;;;5053088;28;20031;-90
2020/12/04 08:27:04;;;;;;;1999.90;999.90;;;;;;;;;;5054562;28;20490;-88
2020/12/04 08:29:30;;;;;;;1999.90;999.90;;;;;;;;;;5052613;28;20103;-89
2020/12/04 08:32:13;;;;;;;1999.90;999.90;;;;;;;;;;5056856;28;20034;-90
2020/12/04 08:34:39;;;;;;;1999.90;999.90;;;;;;;;;;5057219;28;20020;-90
2020/12/04 08:37:07;;;;;;;1999.90;999.90;;;;;;;;;;5058367;28;20032;-89
2020/12/04 08:39:42;;;;;;;1999.90;999.90;;;;;;;;;;5039040;28;20078;-90
2020/12/04 08:42:22;;;;;;;1999.90;999.90;;;;;;;;;;5061077;28;20056;-89
2020/12/04 08:44:55;;;;;;;1999.90;999.90;;;;;;;;;;5054927;28;20025;-90
2020/12/04 08:47:26;;;;;;;1999.90;999.90;;;;;;;;;;5060260;28;20110;-90
2020/12/04 08:49:54;;;;;;;1999.90;999.90;;;;;;;;;;5072756;28;20021;-90
2020/12/04 08:52:40;;;;;;;1999.90;999.90;;;;;;;;;;5072926;28;20099;-89
2020/12/04 08:55:07;;;;;;;1999.90;999.90;;;;;;;;;;5053776;28;20029;-91
2020/12/04 08:57:33;;;;;;;1999.90;999.90;;;;;;;;;;5061369;28;20043;-85
2020/12/04 08:59:59;;;;;;;1999.90;999.90;;;;;;;;;;5051804;28;20112;-86
2020/12/04 09:02:26;;;;;;;1999.90;999.90;;;;;;;;;;5043051;28;20072;-86
2020/12/04 09:04:52;;;;;;;1999.90;999.90;;;;;;;;;;5055806;28;20025;-84
2020/12/04 09:07:18;;;;;;;1999.90;999.90;;;;;;;;;;5050525;28;20092;-85
2020/12/04 09:09:44;;;;;;;1999.90;999.90;;;;;;;;;;5050379;28;20143;-85
2020/12/04 09:12:10;;;;;;;1999.90;999.90;;;;;;;;;;5054523;28;20055;-88
2020/12/04 09:14:37;;;;;;;1999.90;999.90;;;;;;;;;;5048024;28;20025;-85
2020/12/04 09:17:03;;;;;;;1999.90;999.90;;;;;;;;;;5058978;28;20023;-89
2020/12/04 09:19:29;;;;;;;1999.90;999.90;;;;;;;;;;5070779;28;20029;-91
2020/12/04 09:21:55;;;;;;;1999.90;999.90;;;;;;;;;;5065200;28;20146;-90
2020/12/04 09:24:21;;;;;;;1999.90;999.90;;;;;;;;;;5035718;28;20082;-87
2020/12/04 09:26:47;;;;;;;1999.90;999.90;;;;;;;;;;5056433;28;20726;-89
2020/12/04 09:29:13;;;;;;;1999.90;999.90;;;;;;;;;;5070423;28;20058;-89
2020/12/04 09:31:39;;;;;;;1999.90;999.90;;;;;;;;;;5060630;28;20059;-91
2020/12/04 09:34:05;;;;;;;1999.90;999.90;;;;;;;;;;5059952;28;20025;-91
2020/12/04 09:36:31;;;;;;;1999.90;999.90;;;;;;;;;;5060804;28;20031;-90
2020/12/04 09:38:57;;;;;;;1999.90;999.90;;;;;;;;;;5057954;28;20028;-90
2020/12/04 09:41:23;;;;;;;1999.90;999.90;;;;;;;;;;5058579;28;20036;-91
2020/12/04 09:43:49;;;;;;;1999.90;999.90;;;;;;;;;;5061943;28;20058;-90
2020/12/04 09:46:16;;;;;;;1999.90;999.90;;;;;;;;;;5061016;28;20092;-90
2020/12/04 09:48:42;;;;;;;1999.90;999.90;;;;;;;;;;5064463;28;20025;-92
2020/12/04 09:51:08;;;;;;;1999.90;999.90;;;;;;;;;;5078879;28;20032;-87
2020/12/04 09:53:34;;;;;;;1999.90;999.90;;;;;;;;;;5067044;28;20029;-93
2020/12/04 09:56:00;;;;;;;1999.90;999.90;;;;;;;;;;5061899;28;20047;-82
2020/12/04 09:58:26;;;;;;;1999.90;999.90;;;;;;;;;;5052990;28;20029;-83
2020/12/04 10:00:52;;;;;;;1999.90;999.90;;;;;;;;;;5054837;28;20098;-84
2020/12/04 10:03:18;;;;;;;1999.90;999.90;;;;;;;;;;5055023;28;20532;-74
2020/12/04 10:05:44;;;;;;;1999.90;999.90;;;;;;;;;;5059544;28;20079;-79
2020/12/04 10:08:10;;;;;;;1999.90;999.90;;;;;;;;;;5057853;28;20013;-86
2020/12/04 10:10:36;;;;;;;1999.90;999.90;;;;;;;;;;5057077;28;20024;-87
2020/12/04 10:13:03;;;;;;;1999.90;999.90;;;;;;;;;;5057734;28;20167;-88
2020/12/04 10:15:29;;;;;;;1999.90;999.90;;;;;;;;;;5058069;28;20029;-86
2020/12/04 10:17:55;;;;;;;1999.90;999.90;;;;;;;;;;5056767;28;20018;-86
2020/12/04 10:20:21;;;;;;;1999.90;999.90;;;;;;;;;;5056546;28;20033;-86
2020/12/04 10:22:47;;;;;;;1999.90;999.90;;;;;;;;;;5056930;28;20037;-86
2020/12/04 10:25:13;;;;;;;1999.90;999.90;;;;;;;;;;5056043;28;20024;-86
2020/12/04 10:27:39;;;;;;;1999.90;999.90;;;;;;;;;;5054685;28;20033;-86
2020/12/04 10:30:05;;;;;;;1999.90;999.90;;;;;;;;;;5056850;28;20045;-86
2020/12/04 10:32:31;;;;;;;1999.90;999.90;;;;;;;;;;5057167;28;20053;-86
2020/12/04 10:34:58;;;;;;;1999.90;999.90;;;;;;;;;;5056673;28;20398;-87
2020/12/04 10:37:24;;;;;;;1999.90;999.90;;;;;;;;;;5057364;28;20474;-86
2020/12/04 10:39:50;;;;;;;1999.90;999.90;;;;;;;;;;5058359;28;20033;-87
2020/12/04 10:42:16;;;;;;;1999.90;999.90;;;;;;;;;;5046339;28;20036;-87
2020/12/04 10:44:42;;;;;;;1999.90;999.90;;;;;;;;;;5052715;28;20025;-86
2020/12/04 10:47:08;;;;;;;1999.90;999.90;;;;;;;;;;5057462;28;20044;-85
2020/12/04 10:49:34;;;;;;;1999.90;999.90;;;;;;;;;;5056445;28;20517;-86
2020/12/04 10:52:00;;;;;;;1999.90;999.90;;;;;;;;;;5039905;28;20033;-86
2020/12/04 10:54:26;;;;;;;1999.90;999.90;;;;;;;;;;5057573;28;20021;-86
2020/12/04 10:56:55;;;;;;;1999.90;999.90;;;;;;;;;;5058822;28;20078;-90
2020/12/04 10:59:22;;;;;;;1999.90;999.90;;;;;;;;;;5059720;28;20032;-88
2020/12/04 11:01:55;;;;;;;1999.90;999.90;;;;;;;;;;5041867;28;20033;-89
2020/12/04 11:07:06;;;;;;;1999.90;999.90;;;;;;;;;;5060698;28;20055;-91
2020/12/04 11:09:32;;;;;;;1999.90;999.90;;;;;;;;;;5055576;28;20027;-92
2020/12/04 11:11:58;;;;;;;1999.90;999.90;;;;;;;;;;5055392;28;20032;-91
2020/12/04 11:14:24;;;;;;;1999.90;999.90;;;;;;;;;;5058276;28;20057;-93
2020/12/04 11:16:50;;;;;;;1999.90;999.90;;;;;;;;;;5056966;28;20115;-93
2020/12/04 11:19:16;;;;;;;1999.90;999.90;;;;;;;;;;5056457;28;20029;-93
2020/12/04 11:21:43;;;;;;;1999.90;999.90;;;;;;;;;;5066120;28;20025;-88
2020/12/04 11:24:09;;;;;;;1999.90;999.90;;;;;;;;;;5055422;28;20024;-78
2020/12/04 11:26:35;;;;;;;1999.90;999.90;;;;;;;;;;5054350;28;20040;-76
2020/12/04 11:29:01;;;;;;;1999.90;999.90;;;;;;;;;;5052502;28;20045;-82
2020/12/04 11:31:27;;;;;;;1999.90;999.90;;;;;;;;;;5060267;28;20017;-83
2020/12/04 11:33:53;;;;;;;1999.90;999.90;;;;;;;;;;5062286;28;20020;-90
2020/12/04 11:36:19;;;;;;;1999.90;999.90;;;;;;;;;;5053511;28;20115;-89
2020/12/04 11:38:45;;;;;;;1999.90;999.90;;;;;;;;;;5053996;28;20025;-89
2020/12/04 11:41:11;;;;;;;1999.90;999.90;;;;;;;;;;5055233;28;20024;-89
2020/12/04 11:43:37;;;;;;;1999.90;999.90;;;;;;;;;;5055695;28;20025;-90
2020/12/04 11:46:03;;;;;;;1999.90;999.90;;;;;;;;;;5054427;28;20486;-91
2020/12/04 11:48:29;;;;;;;1999.90;999.90;;;;;;;;;;5053973;28;20456;-90
2020/12/04 11:50:55;;;;;;;1999.90;999.90;;;;;;;;;;5060679;28;20025;-89
2020/12/04 11:53:21;;;;;;;1999.90;999.90;;;;;;;;;;5056578;28;20017;-88
2020/12/04 11:55:47;;;;;;;1999.90;999.90;;;;;;;;;;5059006;28;20325;-87
2020/12/04 11:58:13;;;;;;;1999.90;999.90;;;;;;;;;;5064692;28;20040;-84
2020/12/04 12:00:39;;;;;;;1999.90;999.90;;;;;;;;;;5051488;28;20032;-84
2020/12/04 12:03:06;;;;;;;1999.90;999.90;;;;;;;;;;5053632;28;20517;-84
2020/12/04 12:05:32;;;;;;;1999.90;999.90;;;;;;;;;;5052926;28;21605;-85
2020/12/04 12:07:58;;;;;;;1999.90;999.90;;;;;;;;;;5059211;28;20017;-87
2020/12/04 12:10:24;;;;;;;1999.90;999.90;;;;;;;;;;5055957;28;20083;-88
2020/12/04 12:12:51;;;;;;;1999.90;999.90;;;;;;;;;;5055000;28;20116;-86
2020/12/04 12:15:17;;;;;;;1999.90;999.90;;;;;;;;;;5062147;28;20024;-86
2020/12/04 12:17:43;;;;;;;1999.90;999.90;;;;;;;;;;5054436;28;20029;-86
2020/12/04 12:20:09;;;;;;;1999.90;999.90;;;;;;;;;;5056331;28;20024;-86
2020/12/04 12:22:35;;;;;;;1999.90;999.90;;;;;;;;;;5054076;28;20045;-86
2020/12/04 12:25:01;;;;;;;1999.90;999.90;;;;;;;;;;5043040;28;20024;-86
2020/12/04 12:27:28;;;;;;;1999.90;999.90;;;;;;;;;;5052104;28;20048;-86
2020/12/04 12:29:57;;;;;;;1999.90;999.90;;;;;;;;;;5062076;28;20044;-87
2020/12/04 12:32:23;;;;;;;1999.90;999.90;;;;;;;;;;5054250;28;20134;-86
2020/12/04 12:35:11;;;;;;;1999.90;999.90;;;;;;;;;;5063361;28;20021;-85
2020/12/04 12:37:37;;;;;;;1999.90;999.90;;;;;;;;;;5054277;28;20501;-85
2020/12/04 12:40:04;;;;;;;1999.90;999.90;;;;;;;;;;5053970;28;20032;-83
2020/12/04 12:42:31;;;;;;;1999.90;999.90;;;;;;;;;;5055357;28;20055;-85
2020/12/04 12:44:58;;;;;;;1999.90;999.90;;;;;;;;;;5063209;28;20021;-85
2020/12/04 12:47:25;;;;;;;1999.90;999.90;;;;;;;;;;5073373;28;20029;-84
2020/12/04 12:49:51;;;;;;;1999.90;999.90;;;;;;;;;;5075377;28;20043;-87
2020/12/04 12:52:17;;;;;;;1999.90;999.90;;;;;;;;;;5077111;28;20028;-87
2020/12/04 12:54:43;;;;;;;1999.90;999.90;;;;;;;;;;5085725;28;20035;-87
2020/12/04 12:57:10;;;;;;;1999.90;999.90;;;;;;;;;;5075658;28;20021;-87
2020/12/04 12:59:36;;;;;;;1999.90;999.90;;;;;;;;;;5075171;28;20084;-86
2020/12/04 13:02:02;;;;;;;1999.90;999.90;;;;;;;;;;5073366;28;20069;-87
2020/12/04 13:04:28;;;;;;;1999.90;999.90;;;;;;;;;;5080929;28;20057;-85
2020/12/04 13:06:54;;;;;;;1999.90;999.90;;;;;;;;;;5076292;28;20021;-86
2020/12/04 13:09:24;;;;;;;1999.90;999.90;;;;;;;;;;5075208;28;20029;-86
2020/12/04 13:11:51;;;;;;;1999.90;999.90;;;;;;;;;;5074713;28;20029;-84
2020/12/04 13:14:17;;;;;;;1999.90;999.90;;;;;;;;;;5074874;28;20029;-86
2020/12/04 13:16:44;;;;;;;1999.90;999.90;;;;;;;;;;5074503;28;20040;-85
2020/12/04 13:19:11;;;;;;;1999.90;999.90;;;;;;;;;;5073630;28;20040;-86
2020/12/04 13:24:23;;;;;;;1999.90;999.90;;;;;;;;;;5051629;28;20039;-86
2020/12/04 13:26:49;;;;;;;1999.90;999.90;;;;;;;;;;5054371;28;20128;-88
2020/12/04 13:29:15;;;;;;;1999.90;999.90;;;;;;;;;;5052964;28;20106;-90
2020/12/04 13:31:41;;;;;;;1999.90;999.90;;;;;;;;;;5056025;28;20033;-89
2020/12/04 13:34:07;;;;;;;1999.90;999.90;;;;;;;;;;5051785;28;20029;-89
2020/12/04 13:36:33;;;;;;;1999.90;999.90;;;;;;;;;;5051670;28;20041;-88
2020/12/04 13:38:59;;;;;;;1999.90;999.90;;;;;;;;;;5049021;28;20044;-87
2020/12/04 13:41:26;;;;;;;1999.90;999.90;;;;;;;;;;5040138;28;20083;-88
2020/12/04 13:43:52;;;;;;;1999.90;999.90;;;;;;;;;;5044876;28;20034;-88
2020/12/04 13:46:18;;;;;;;1999.90;999.90;;;;;;;;;;5051368;28;20045;-86
2020/12/04 13:48:44;;;;;;;1999.90;999.90;;;;;;;;;;5036348;28;20052;-86